createdAt,value
2018-06-29T00:00:43.643Z,12.84
2018-06-29T00:01:43.592Z,12.91
2018-06-29T00:02:43.520Z,12.98
2018-06-29T00:03:43.625Z,12.95
2018-06-29T00:04:43.519Z,12.99
2018-06-29T00:05:43.671Z,13.03
2018-06-29T00:06:43.554Z,12.98
2018-06-29T00:07:43.616Z,12.99
2018-06-29T00:08:43.787Z,12.99
2018-06-29T00:09:43.871Z,13
2018-06-29T00:10:43.541Z,12.91
2018-06-29T00:11:44.017Z,12.98
2018-06-29T00:12:43.544Z,12.95
2018-06-29T00:13:43.553Z,12.89
2018-06-29T00:14:43.627Z,12.82
2018-06-29T00:15:43.537Z,12.96
2018-06-29T00:16:43.599Z,12.82
2018-06-29T00:17:43.570Z,12.94
2018-06-29T00:18:43.566Z,12.84
2018-06-29T00:19:43.761Z,12.94
2018-06-29T00:20:43.693Z,12.88
2018-06-29T00:21:43.573Z,12.89
2018-06-29T00:22:43.558Z,12.92
2018-06-29T00:23:43.592Z,12.92
2018-06-29T00:24:43.610Z,12.86
2018-06-29T00:25:43.545Z,12.87
2018-06-29T00:26:43.716Z,12.95
2018-06-29T00:27:43.615Z,12.98
2018-06-29T00:28:43.597Z,12.98
2018-06-29T00:29:44.789Z,12.96
2018-06-29T00:30:43.580Z,12.96
2018-06-29T00:31:43.579Z,12.96
2018-06-29T00:32:43.665Z,12.97
2018-06-29T00:33:43.660Z,12.93
2018-06-29T00:34:43.565Z,12.96
2018-06-29T00:35:43.783Z,12.95
2018-06-29T00:36:43.722Z,12.92
2018-06-29T00:37:43.540Z,12.94
2018-06-29T00:38:43.711Z,12.93
2018-06-29T00:39:43.632Z,12.94
2018-06-29T00:40:43.576Z,12.95
2018-06-29T00:41:43.735Z,12.95
2018-06-29T00:42:43.580Z,12.96
2018-06-29T00:43:43.559Z,12.94
2018-06-29T00:44:44.687Z,12.95
2018-06-29T00:45:43.702Z,12.95
2018-06-29T00:46:43.613Z,12.89
2018-06-29T00:47:43.657Z,12.9
2018-06-29T00:48:43.621Z,12.92
2018-06-29T00:49:43.781Z,12.91
2018-06-29T00:50:43.673Z,12.88
2018-06-29T00:51:43.595Z,12.86
2018-06-29T00:52:43.546Z,12.87
2018-06-29T00:53:43.698Z,12.84
2018-06-29T00:54:44.263Z,12.77
2018-06-29T00:55:43.568Z,12.67
2018-06-29T00:56:44.736Z,12.65
2018-06-29T00:57:43.581Z,12.73
2018-06-29T00:58:43.612Z,12.82
2018-06-29T00:59:43.651Z,12.91
2018-06-29T01:00:43.685Z,12.78
2018-06-29T01:01:43.597Z,12.88
2018-06-29T01:02:43.614Z,12.88
2018-06-29T01:03:43.603Z,12.85
2018-06-29T01:04:43.697Z,12.89
2018-06-29T01:05:43.944Z,12.82
2018-06-29T01:06:43.580Z,12.88
2018-06-29T01:07:43.627Z,12.85
2018-06-29T01:08:43.698Z,12.82
2018-06-29T01:09:43.618Z,12.86
2018-06-29T01:10:43.554Z,12.87
2018-06-29T01:11:43.594Z,12.81
2018-06-29T01:12:43.826Z,12.87
2018-06-29T01:13:43.580Z,12.87
2018-06-29T01:14:43.605Z,12.87
2018-06-29T01:15:43.721Z,12.8
2018-06-29T01:16:43.560Z,12.81
2018-06-29T01:17:43.597Z,12.8
2018-06-29T01:18:43.746Z,12.79
2018-06-29T01:19:43.571Z,12.79
2018-06-29T01:20:43.576Z,12.75
2018-06-29T01:21:43.622Z,12.82
2018-06-29T01:22:43.587Z,12.72
2018-06-29T01:23:43.597Z,12.72
2018-06-29T01:24:43.574Z,12.82
2018-06-29T01:25:43.656Z,12.66
2018-06-29T01:26:43.578Z,12.75
2018-06-29T01:27:43.575Z,12.67
2018-06-29T01:28:44.055Z,12.62
2018-06-29T01:29:43.607Z,12.84
2018-06-29T01:30:43.595Z,12.9
2018-06-29T01:31:43.624Z,12.86
2018-06-29T01:32:43.609Z,12.79
2018-06-29T01:33:43.610Z,12.67
2018-06-29T01:34:43.595Z,12.83
2018-06-29T01:35:43.603Z,12.82
2018-06-29T01:36:43.656Z,12.8
2018-06-29T01:37:43.594Z,12.8
2018-06-29T01:38:43.611Z,12.83
2018-06-29T01:39:43.652Z,12.88
2018-06-29T01:40:43.622Z,12.87
2018-06-29T01:41:43.632Z,12.85
2018-06-29T01:42:43.635Z,12.84
2018-06-29T01:43:43.708Z,12.84
2018-06-29T01:44:43.674Z,12.82
2018-06-29T01:45:43.749Z,12.8
2018-06-29T01:46:43.861Z,12.78
2018-06-29T01:47:43.683Z,12.75
2018-06-29T01:48:43.676Z,12.78
2018-06-29T01:49:43.715Z,12.8
2018-06-29T01:50:43.997Z,12.87
2018-06-29T01:51:43.741Z,12.88
2018-06-29T01:52:44.410Z,12.87
2018-06-29T01:53:43.673Z,12.86
2018-06-29T01:54:43.678Z,12.86
2018-06-29T01:55:43.689Z,12.84
2018-06-29T01:56:43.661Z,12.82
2018-06-29T01:57:44.045Z,12.84
2018-06-29T01:58:43.734Z,12.82
2018-06-29T01:59:43.692Z,12.76
2018-06-29T02:00:43.668Z,12.81
2018-06-29T02:01:43.710Z,12.81
2018-06-29T02:02:43.668Z,12.79
2018-06-29T02:03:43.673Z,12.83
2018-06-29T02:04:43.700Z,12.84
2018-06-29T02:05:43.675Z,12.82
2018-06-29T02:06:43.700Z,12.8
2018-06-29T02:07:43.667Z,12.8
2018-06-29T02:08:43.651Z,12.79
2018-06-29T02:09:43.736Z,12.78
2018-06-29T02:10:43.707Z,12.66
2018-06-29T02:11:43.794Z,12.78
2018-06-29T02:12:43.669Z,12.79
2018-06-29T02:13:43.692Z,12.7
2018-06-29T02:14:43.712Z,12.63
2018-06-29T02:15:43.697Z,12.62
2018-06-29T02:16:43.727Z,12.55
2018-06-29T02:17:43.710Z,12.59
2018-06-29T02:18:43.778Z,12.62
2018-06-29T02:19:43.672Z,12.65
2018-06-29T02:20:43.791Z,12.67
2018-06-29T02:21:43.699Z,12.62
2018-06-29T02:22:43.739Z,12.72
2018-06-29T02:23:43.701Z,12.61
2018-06-29T02:24:43.755Z,12.68
2018-06-29T02:25:43.826Z,12.63
2018-06-29T02:26:43.705Z,12.7
2018-06-29T02:27:44.346Z,12.63
2018-06-29T02:28:43.755Z,12.68
2018-06-29T02:29:43.745Z,12.67
2018-06-29T02:30:44.546Z,12.68
2018-06-29T02:31:43.743Z,12.6
2018-06-29T02:32:43.788Z,12.53
2018-06-29T02:33:43.685Z,12.52
2018-06-29T02:34:43.724Z,12.49
2018-06-29T02:35:43.722Z,12.49
2018-06-29T02:36:43.694Z,12.47
2018-06-29T02:37:43.813Z,12.6
2018-06-29T02:38:43.788Z,12.6
2018-06-29T02:39:43.749Z,12.58
2018-06-29T02:40:43.684Z,12.58
2018-06-29T02:41:43.726Z,12.52
2018-06-29T02:42:43.714Z,12.49
2018-06-29T02:43:43.741Z,12.58
2018-06-29T02:44:43.732Z,12.68
2018-06-29T02:45:43.755Z,12.66
2018-06-29T02:46:43.771Z,12.69
2018-06-29T02:47:43.760Z,12.67
2018-06-29T02:48:43.737Z,12.73
2018-06-29T02:49:43.898Z,12.72
2018-06-29T02:50:43.770Z,12.74
2018-06-29T02:51:43.908Z,12.68
2018-06-29T02:52:43.778Z,12.66
2018-06-29T02:53:43.817Z,12.55
2018-06-29T02:54:43.783Z,12.56
2018-06-29T02:55:43.679Z,12.57
2018-06-29T02:56:43.763Z,12.55
2018-06-29T02:57:43.660Z,12.54
2018-06-29T02:58:43.815Z,12.48
2018-06-29T02:59:43.703Z,12.5
2018-06-29T03:00:43.815Z,12.46
2018-06-29T03:01:43.692Z,12.47
2018-06-29T03:02:43.804Z,12.47
2018-06-29T03:03:43.715Z,12.46
2018-06-29T03:04:43.695Z,12.44
2018-06-29T03:05:43.675Z,12.45
2018-06-29T03:06:43.650Z,12.75
2018-06-29T03:07:43.822Z,12.64
2018-06-29T03:08:43.660Z,12.66
2018-06-29T03:09:44.056Z,12.72
2018-06-29T03:10:43.630Z,12.77
2018-06-29T03:11:43.900Z,12.66
2018-06-29T03:12:43.688Z,12.65
2018-06-29T03:13:43.673Z,12.76
2018-06-29T03:14:43.683Z,12.78
2018-06-29T03:15:43.704Z,12.69
2018-06-29T03:16:43.718Z,12.8
2018-06-29T03:17:44.041Z,12.8
2018-06-29T03:18:43.698Z,12.72
2018-06-29T03:19:43.655Z,12.88
2018-06-29T03:20:43.700Z,12.8
2018-06-29T03:21:43.709Z,12.83
2018-06-29T03:22:43.648Z,12.9
2018-06-29T03:23:43.725Z,12.97
2018-06-29T03:24:43.650Z,13.02
2018-06-29T03:25:43.647Z,12.97
2018-06-29T03:26:44.021Z,12.96
2018-06-29T03:27:43.692Z,13.07
2018-06-29T03:28:43.722Z,12.96
2018-06-29T03:29:43.736Z,12.77
2018-06-29T03:30:43.736Z,12.92
2018-06-29T03:31:43.727Z,12.82
2018-06-29T03:32:44.306Z,12.81
2018-06-29T03:33:43.760Z,12.76
2018-06-29T03:34:43.745Z,12.77
2018-06-29T03:35:43.700Z,12.88
2018-06-29T03:36:43.761Z,12.99
2018-06-29T03:37:43.662Z,12.98
2018-06-29T03:38:43.694Z,12.92
2018-06-29T03:39:43.793Z,12.88
2018-06-29T03:40:44.090Z,12.8
2018-06-29T03:41:43.714Z,12.77
2018-06-29T03:42:43.698Z,12.76
2018-06-29T03:43:43.703Z,12.74
2018-06-29T03:44:43.706Z,12.91
2018-06-29T03:45:43.682Z,12.89
2018-06-29T03:46:43.675Z,12.91
2018-06-29T03:47:43.706Z,12.97
2018-06-29T03:48:43.661Z,12.89
2018-06-29T03:49:43.706Z,12.74
2018-06-29T03:50:43.694Z,12.71
2018-06-29T03:51:43.693Z,12.72
2018-06-29T03:52:43.690Z,12.88
2018-06-29T03:53:43.693Z,13.02
2018-06-29T03:54:43.712Z,12.94
2018-06-29T03:55:43.690Z,12.9
2018-06-29T03:56:43.714Z,12.79
2018-06-29T03:57:43.731Z,12.91
2018-06-29T03:58:43.702Z,12.83
2018-06-29T03:59:43.720Z,12.77
2018-06-29T04:00:43.743Z,12.75
2018-06-29T04:01:43.762Z,12.71
2018-06-29T04:02:43.796Z,12.69
2018-06-29T04:03:43.746Z,12.7
2018-06-29T04:04:43.960Z,12.77
2018-06-29T04:05:43.801Z,12.78
2018-06-29T04:06:44.307Z,12.87
2018-06-29T04:07:43.748Z,12.81
2018-06-29T04:08:44.040Z,12.76
2018-06-29T04:09:43.739Z,12.81
2018-06-29T04:10:43.717Z,13.04
2018-06-29T04:11:44.060Z,12.92
2018-06-29T04:12:43.703Z,12.99
2018-06-29T04:13:43.721Z,12.88
2018-06-29T04:14:43.687Z,12.87
2018-06-29T04:15:43.804Z,12.97
2018-06-29T04:16:43.740Z,13.14
2018-06-29T04:17:43.773Z,13.11
2018-06-29T04:18:43.803Z,13.12
2018-06-29T04:19:43.708Z,13.08
2018-06-29T04:20:43.691Z,13.07
2018-06-29T04:21:43.723Z,12.94
2018-06-29T04:22:43.807Z,12.9
2018-06-29T04:23:43.710Z,12.96
2018-06-29T04:24:43.896Z,13.05
2018-06-29T04:25:43.745Z,12.98
2018-06-29T04:26:43.717Z,12.9
2018-06-29T04:27:43.937Z,12.92
2018-06-29T04:28:43.808Z,12.92
2018-06-29T04:29:43.899Z,12.86
2018-06-29T04:30:43.718Z,12.85
2018-06-29T04:31:43.760Z,12.8
2018-06-29T04:32:44.096Z,12.87
2018-06-29T04:33:43.709Z,12.96
2018-06-29T04:34:43.703Z,12.85
2018-06-29T04:35:43.767Z,12.87
2018-06-29T04:36:43.740Z,12.9
2018-06-29T04:37:43.740Z,12.95
2018-06-29T04:38:43.739Z,12.89
2018-06-29T04:39:43.883Z,12.94
2018-06-29T04:40:43.748Z,13.01
2018-06-29T04:41:43.817Z,12.89
2018-06-29T04:42:43.749Z,12.9
2018-06-29T04:43:43.716Z,12.87
2018-06-29T04:44:44.442Z,12.94
2018-06-29T04:45:43.802Z,12.86
2018-06-29T04:46:43.873Z,12.89
2018-06-29T04:47:44.438Z,13.01
2018-06-29T04:48:43.892Z,13.11
2018-06-29T04:49:43.792Z,13.12
2018-06-29T04:50:43.766Z,13.13
2018-06-29T04:51:43.878Z,13.07
2018-06-29T04:52:43.809Z,13.14
2018-06-29T04:53:43.788Z,13.17
2018-06-29T04:54:43.794Z,12.98
2018-06-29T04:55:43.796Z,12.99
2018-06-29T04:56:43.804Z,12.89
2018-06-29T04:57:43.828Z,12.87
2018-06-29T04:58:43.985Z,13.14
2018-06-29T04:59:43.787Z,13.13
2018-06-29T05:00:43.844Z,13.02
2018-06-29T05:01:43.842Z,12.99
2018-06-29T05:02:43.806Z,12.96
2018-06-29T05:03:43.778Z,12.98
2018-06-29T05:04:43.761Z,12.98
2018-06-29T05:05:43.795Z,13.14
2018-06-29T05:06:43.826Z,13.17
2018-06-29T05:07:43.830Z,13.1
2018-06-29T05:08:43.819Z,13.11
2018-06-29T05:09:43.927Z,13.01
2018-06-29T05:10:43.849Z,13.16
2018-06-29T05:11:43.860Z,13.23
2018-06-29T05:12:43.817Z,13.23
2018-06-29T05:13:43.825Z,13.1
2018-06-29T05:14:43.785Z,13.16
2018-06-29T05:15:43.802Z,13.13
2018-06-29T05:16:43.822Z,13.1
2018-06-29T05:17:43.824Z,13.07
2018-06-29T05:18:43.817Z,12.98
2018-06-29T05:19:43.819Z,13.08
2018-06-29T05:20:43.814Z,12.93
2018-06-29T05:21:43.847Z,13.15
2018-06-29T05:22:43.838Z,13.11
2018-06-29T05:23:43.820Z,13.12
2018-06-29T05:24:43.851Z,13.03
2018-06-29T05:25:43.909Z,13.06
2018-06-29T05:26:43.850Z,12.98
2018-06-29T05:27:43.887Z,12.94
2018-06-29T05:28:44.057Z,12.92
2018-06-29T05:29:43.823Z,12.89
2018-06-29T05:30:43.910Z,13.06
2018-06-29T05:31:43.839Z,13.06
2018-06-29T05:32:43.829Z,13.01
2018-06-29T05:33:43.804Z,13.05
2018-06-29T05:34:43.933Z,12.94
2018-06-29T05:35:43.817Z,12.92
2018-06-29T05:36:43.875Z,12.92
2018-06-29T05:37:43.893Z,12.98
2018-06-29T05:38:43.828Z,12.91
2018-06-29T05:39:43.823Z,12.91
2018-06-29T05:40:43.916Z,12.88
2018-06-29T05:41:44.734Z,12.87
2018-06-29T05:42:44.216Z,12.84
2018-06-29T05:43:43.814Z,12.86
2018-06-29T05:44:43.789Z,12.88
2018-06-29T05:45:43.806Z,12.87
2018-06-29T05:46:43.859Z,12.88
2018-06-29T05:47:43.877Z,12.91
2018-06-29T05:48:43.830Z,12.91
2018-06-29T05:49:43.913Z,12.88
2018-06-29T05:50:43.980Z,12.91
2018-06-29T05:51:44.151Z,12.88
2018-06-29T05:52:43.833Z,12.89
2018-06-29T05:53:43.821Z,12.9
2018-06-29T05:54:43.841Z,12.95
2018-06-29T05:55:43.832Z,12.98
2018-06-29T05:56:43.839Z,12.99
2018-06-29T05:57:43.753Z,12.98
2018-06-29T05:58:43.764Z,12.96
2018-06-29T05:59:43.767Z,12.97
2018-06-29T06:00:43.767Z,13.11
2018-06-29T06:01:43.773Z,13.14
2018-06-29T06:02:43.788Z,13.05
2018-06-29T06:03:43.775Z,13.07
2018-06-29T06:04:44.439Z,13.07
2018-06-29T06:05:43.942Z,13.01
2018-06-29T06:06:43.789Z,12.93
2018-06-29T06:07:43.783Z,12.95
2018-06-29T06:08:43.771Z,12.93
2018-06-29T06:09:43.765Z,12.92
2018-06-29T06:10:43.769Z,12.92
2018-06-29T06:11:43.786Z,12.91
2018-06-29T06:12:43.785Z,12.97
2018-06-29T06:13:43.797Z,12.93
2018-06-29T06:14:43.768Z,12.91
2018-06-29T06:15:43.838Z,12.93
2018-06-29T06:16:43.819Z,13.02
2018-06-29T06:17:43.837Z,13.06
2018-06-29T06:18:43.795Z,12.96
2018-06-29T06:19:43.802Z,12.98
2018-06-29T06:20:43.820Z,12.95
2018-06-29T06:21:44.025Z,12.91
2018-06-29T06:22:43.814Z,12.92
2018-06-29T06:23:43.789Z,12.88
2018-06-29T06:24:43.781Z,12.92
2018-06-29T06:25:44.012Z,12.91
2018-06-29T06:26:43.782Z,12.89
2018-06-29T06:27:43.861Z,12.92
2018-06-29T06:28:43.786Z,12.9
2018-06-29T06:29:43.798Z,12.91
2018-06-29T06:30:44.055Z,12.85
2018-06-29T06:31:43.789Z,12.84
2018-06-29T06:32:43.772Z,12.84
2018-06-29T06:33:43.934Z,12.84
2018-06-29T06:34:43.799Z,12.8
2018-06-29T06:35:43.847Z,12.78
2018-06-29T06:36:43.796Z,12.75
2018-06-29T06:37:43.826Z,12.78
2018-06-29T06:38:43.859Z,12.77
2018-06-29T06:39:43.807Z,12.76
2018-06-29T06:40:43.821Z,12.76
2018-06-29T06:41:44.686Z,12.8
2018-06-29T06:42:43.825Z,12.79
2018-06-29T06:43:43.899Z,12.83
2018-06-29T06:44:43.884Z,12.8
2018-06-29T06:45:43.791Z,12.8
2018-06-29T06:46:43.827Z,12.76
2018-06-29T06:47:43.872Z,12.71
2018-06-29T06:48:43.836Z,12.75
2018-06-29T06:49:43.834Z,12.76
2018-06-29T06:50:43.852Z,12.8
2018-06-29T06:51:43.803Z,12.88
2018-06-29T06:52:43.837Z,12.9
2018-06-29T06:53:45.308Z,12.92
2018-06-29T06:54:43.836Z,12.89
2018-06-29T06:55:43.864Z,12.95
2018-06-29T06:56:43.796Z,13.01
2018-06-29T06:57:43.836Z,12.8
2018-06-29T06:58:43.853Z,12.84
2018-06-29T06:59:43.855Z,12.96
2018-06-29T07:00:43.915Z,12.9
2018-06-29T07:01:43.882Z,12.92
2018-06-29T07:02:43.801Z,13.19
2018-06-29T07:03:43.840Z,13.09
2018-06-29T07:04:43.881Z,13.07
2018-06-29T07:05:43.999Z,13.35
2018-06-29T07:06:43.866Z,13.37
2018-06-29T07:07:44.052Z,13.77
2018-06-29T07:08:43.879Z,13.5
2018-06-29T07:09:43.855Z,13.65
2018-06-29T07:10:43.837Z,13.66
2018-06-29T07:11:43.848Z,13.74
2018-06-29T07:12:44.214Z,13.71
2018-06-29T07:13:43.850Z,13.63
2018-06-29T07:14:43.892Z,13.68
2018-06-29T07:15:43.870Z,13.69
2018-06-29T07:16:43.868Z,13.73
2018-06-29T07:17:43.851Z,13.59
2018-06-29T07:18:43.840Z,13.83
2018-06-29T07:19:43.831Z,13.64
2018-06-29T07:20:43.833Z,13.55
2018-06-29T07:21:48.430Z,13.65
2018-06-29T07:22:43.848Z,13.6
2018-06-29T07:23:43.815Z,13.64
2018-06-29T07:24:43.806Z,13.67
2018-06-29T07:25:43.859Z,13.68
2018-06-29T07:26:43.827Z,13.6
2018-06-29T07:27:43.945Z,13.56
2018-06-29T07:28:43.963Z,13.39
2018-06-29T07:29:44.479Z,13.37
2018-06-29T07:30:43.826Z,13.47
2018-06-29T07:31:43.874Z,13.39
2018-06-29T07:32:44.149Z,13.52
2018-06-29T07:33:43.851Z,13.43
2018-06-29T07:34:43.845Z,13.38
2018-06-29T07:35:43.818Z,13.4
2018-06-29T07:36:43.876Z,13.34
2018-06-29T07:37:44.127Z,13.4
2018-06-29T07:38:44.172Z,13.36
2018-06-29T07:39:43.856Z,13.3
2018-06-29T07:40:43.920Z,13.47
2018-06-29T07:41:43.837Z,13.46
2018-06-29T07:42:44.356Z,13.74
2018-06-29T07:43:43.905Z,13.66
2018-06-29T07:44:43.857Z,13.65
2018-06-29T07:45:43.888Z,13.54
2018-06-29T07:46:45.028Z,13.58
2018-06-29T07:47:43.973Z,13.67
2018-06-29T07:48:43.955Z,13.67
2018-06-29T07:49:43.895Z,13.57
2018-06-29T07:50:43.972Z,13.68
2018-06-29T07:51:43.926Z,13.51
2018-06-29T07:52:44.102Z,13.4
2018-06-29T07:53:44.006Z,13.39
2018-06-29T07:54:44.370Z,13.4
2018-06-29T07:55:44.000Z,13.45
2018-06-29T07:56:44.151Z,13.52
2018-06-29T07:57:44.106Z,13.5
2018-06-29T07:58:45.806Z,13.64
2018-06-29T07:59:44.062Z,13.68
2018-06-29T08:00:43.979Z,13.68
2018-06-29T08:01:44.032Z,13.59
2018-06-29T08:02:45.171Z,13.59
2018-06-29T08:03:44.160Z,13.27
2018-06-29T08:04:44.082Z,13.37
2018-06-29T08:05:44.066Z,13.43
2018-06-29T08:06:44.314Z,13.52
2018-06-29T08:07:44.067Z,13.44
2018-06-29T08:08:44.101Z,13.29
2018-06-29T08:09:43.993Z,13.1
2018-06-29T08:10:45.222Z,13.16
2018-06-29T08:11:44.095Z,13.31
2018-06-29T08:12:44.069Z,13.33
2018-06-29T08:13:44.073Z,13.44
2018-06-29T08:14:44.034Z,13.5
2018-06-29T08:15:44.385Z,13.17
2018-06-29T08:16:44.144Z,13.2
2018-06-29T08:17:44.009Z,13.08
2018-06-29T08:18:43.977Z,12.99
2018-06-29T08:19:44.005Z,13.11
2018-06-29T08:20:44.009Z,13.15
2018-06-29T08:21:44.054Z,13
2018-06-29T08:22:44.035Z,12.88
2018-06-29T08:23:44.069Z,13.02
2018-06-29T08:24:43.993Z,12.93
2018-06-29T08:25:44.035Z,12.91
2018-06-29T08:26:43.999Z,12.92
2018-06-29T08:27:44.010Z,13.05
2018-06-29T08:28:43.995Z,12.98
2018-06-29T08:29:44.009Z,13.01
2018-06-29T08:30:44.052Z,13.13
2018-06-29T08:31:44.037Z,13.1
2018-06-29T08:32:44.017Z,12.99
2018-06-29T08:33:44.025Z,13.12
2018-06-29T08:34:44.027Z,12.92
2018-06-29T08:35:44.061Z,13
2018-06-29T08:36:43.995Z,12.95
2018-06-29T08:37:44.023Z,13
2018-06-29T08:38:45.340Z,13.03
2018-06-29T08:39:44.582Z,13.18
2018-06-29T08:40:43.974Z,12.9
2018-06-29T08:41:44.079Z,12.97
2018-06-29T08:42:44.027Z,12.89
2018-06-29T08:43:44.088Z,13
2018-06-29T08:44:44.073Z,13.08
2018-06-29T08:45:44.032Z,13.01
2018-06-29T08:46:44.725Z,12.98
2018-06-29T08:47:44.055Z,12.81
2018-06-29T08:48:44.010Z,12.86
2018-06-29T08:49:45.042Z,12.93
2018-06-29T08:50:44.021Z,12.81
2018-06-29T08:51:44.237Z,12.86
2018-06-29T08:52:44.015Z,12.87
2018-06-29T08:53:44.076Z,12.87
2018-06-29T08:54:44.016Z,12.94
2018-06-29T08:55:44.122Z,12.89
2018-06-29T08:56:44.130Z,12.98
2018-06-29T08:57:44.000Z,12.89
2018-06-29T08:58:44.397Z,12.96
2018-06-29T08:59:44.106Z,13.07
2018-06-29T09:00:44.197Z,12.96
2018-06-29T09:01:43.994Z,12.99
2018-06-29T09:02:44.357Z,12.98
2018-06-29T09:03:44.004Z,13.12
2018-06-29T09:04:44.157Z,13.04
2018-06-29T09:05:44.015Z,12.8
2018-06-29T09:06:44.058Z,12.55
2018-06-29T09:07:44.052Z,12.69
2018-06-29T09:08:44.333Z,12.68
2018-06-29T09:09:44.178Z,12.62
2018-06-29T09:10:44.066Z,12.63
2018-06-29T09:11:44.194Z,12.66
2018-06-29T09:12:44.080Z,12.75
2018-06-29T09:13:44.178Z,12.87
2018-06-29T09:14:47.721Z,12.92
2018-06-29T09:15:44.281Z,12.9
2018-06-29T09:16:44.176Z,12.74
2018-06-29T09:17:44.366Z,12.57
2018-06-29T09:18:43.879Z,12.58
2018-06-29T09:19:43.909Z,12.69
2018-06-29T09:20:43.891Z,12.75
2018-06-29T09:21:44.291Z,12.76
2018-06-29T09:22:44.377Z,12.67
2018-06-29T09:23:44.244Z,12.71
2018-06-29T09:24:44.254Z,12.78
2018-06-29T09:25:44.257Z,12.52
2018-06-29T09:26:44.156Z,12.52
2018-06-29T09:27:44.164Z,12.43
2018-06-29T09:28:44.207Z,12.57
2018-06-29T09:29:44.287Z,12.47
2018-06-29T09:30:48.806Z,12.29
2018-06-29T09:31:44.514Z,12.39
2018-06-29T09:32:43.977Z,12.55
2018-06-29T09:33:43.931Z,12.69
2018-06-29T09:34:44.280Z,12.57
2018-06-29T09:35:44.017Z,12.7
2018-06-29T09:36:43.990Z,12.56
2018-06-29T09:37:43.922Z,12.59
2018-06-29T09:38:44.007Z,12.65
2018-06-29T09:39:44.044Z,12.55
2018-06-29T09:40:44.261Z,12.4
2018-06-29T09:41:44.328Z,12.46
2018-06-29T09:42:44.035Z,12.39
2018-06-29T09:43:44.025Z,12.38
2018-06-29T09:44:43.977Z,12.55
2018-06-29T09:45:44.080Z,12.64
2018-06-29T09:46:43.934Z,12.42
2018-06-29T09:47:44.501Z,12.56
2018-06-29T09:48:44.540Z,12.36
2018-06-29T09:49:44.324Z,12.33
2018-06-29T09:50:43.908Z,12.42
2018-06-29T09:51:44.101Z,12.63
2018-06-29T09:52:44.096Z,12.33
2018-06-29T09:53:44.101Z,12.17
2018-06-29T09:54:44.004Z,12.24
2018-06-29T09:55:44.344Z,12.32
2018-06-29T09:56:43.985Z,12.28
2018-06-29T09:57:43.945Z,12.38
2018-06-29T09:58:44.180Z,12.59
2018-06-29T09:59:44.175Z,12.56
2018-06-29T10:00:45.153Z,12.53
2018-06-29T10:01:43.935Z,12.48
2018-06-29T10:02:43.956Z,12.46
2018-06-29T10:03:44.141Z,12.62
2018-06-29T10:04:43.933Z,12.79
2018-06-29T10:05:43.960Z,12.7
2018-06-29T10:06:44.079Z,12.75
2018-06-29T10:07:43.999Z,12.66
2018-06-29T10:08:43.936Z,12.61
2018-06-29T10:09:44.035Z,12.57
2018-06-29T10:10:44.235Z,12.59
2018-06-29T10:11:44.047Z,12.76
2018-06-29T10:12:44.237Z,12.72
2018-06-29T10:13:45.520Z,12.86
2018-06-29T10:14:44.066Z,12.87
2018-06-29T10:15:44.075Z,12.86
2018-06-29T10:16:44.162Z,12.79
2018-06-29T10:17:43.950Z,12.88
2018-06-29T10:18:44.041Z,12.94
2018-06-29T10:19:45.229Z,13.04
2018-06-29T10:20:44.018Z,12.97
2018-06-29T10:21:43.982Z,12.77
2018-06-29T10:22:44.039Z,12.59
2018-06-29T10:23:44.140Z,12.67
2018-06-29T10:24:43.959Z,12.58
2018-06-29T10:25:44.101Z,12.55
2018-06-29T10:26:44.119Z,12.56
2018-06-29T10:27:44.237Z,12.46
2018-06-29T10:28:44.030Z,12.52
2018-06-29T10:29:44.046Z,12.56
2018-06-29T10:30:44.575Z,12.52
2018-06-29T10:31:43.963Z,12.7
2018-06-29T10:32:43.974Z,12.73
2018-06-29T10:33:43.960Z,12.8
2018-06-29T10:34:43.935Z,12.71
2018-06-29T10:35:44.050Z,12.76
2018-06-29T10:36:44.339Z,12.63
2018-06-29T10:37:44.022Z,12.74
2018-06-29T10:38:44.326Z,12.88
2018-06-29T10:39:48.219Z,12.81
2018-06-29T10:40:43.985Z,12.85
2018-06-29T10:41:44.025Z,12.98
2018-06-29T10:42:44.168Z,12.91
2018-06-29T10:43:43.971Z,12.59
2018-06-29T10:44:44.752Z,12.86
2018-06-29T10:45:44.197Z,12.87
2018-06-29T10:46:43.994Z,13
2018-06-29T10:47:43.990Z,13.04
2018-06-29T10:48:44.085Z,13.18
2018-06-29T10:49:44.009Z,13.22
2018-06-29T10:50:44.181Z,13.15
2018-06-29T10:51:43.957Z,13.13
2018-06-29T10:52:44.292Z,13.07
2018-06-29T10:53:43.969Z,13.1
2018-06-29T10:54:43.987Z,12.98
2018-06-29T10:55:44.076Z,12.89
2018-06-29T10:56:44.237Z,12.76
2018-06-29T10:57:44.140Z,12.53
2018-06-29T10:58:45.380Z,12.56
2018-06-29T10:59:44.072Z,12.85
2018-06-29T11:00:44.176Z,13
2018-06-29T11:01:43.995Z,12.99
2018-06-29T11:02:44.077Z,13.16
2018-06-29T11:03:43.984Z,12.8
2018-06-29T11:04:44.084Z,12.9
2018-06-29T11:05:44.094Z,13.01
2018-06-29T11:06:44.009Z,12.97
2018-06-29T11:07:44.014Z,12.98
2018-06-29T11:08:44.170Z,12.77
2018-06-29T11:09:44.019Z,12.72
2018-06-29T11:10:44.065Z,12.85
2018-06-29T11:11:43.986Z,12.91
2018-06-29T11:12:44.290Z,12.88
2018-06-29T11:13:44.166Z,12.79
2018-06-29T11:14:44.061Z,12.82
2018-06-29T11:15:44.120Z,12.8
2018-06-29T11:16:44.111Z,12.57
2018-06-29T11:17:44.031Z,12.69
2018-06-29T11:18:44.041Z,12.95
2018-06-29T11:19:44.132Z,12.72
2018-06-29T11:20:44.163Z,12.61
2018-06-29T11:21:44.216Z,12.65
2018-06-29T11:22:44.410Z,12.34
2018-06-29T11:23:44.087Z,12.43
2018-06-29T11:24:44.109Z,12.48
2018-06-29T11:25:44.187Z,12.39
2018-06-29T11:26:44.001Z,12.31
2018-06-29T11:27:44.151Z,12.18
2018-06-29T11:28:44.201Z,12.18
2018-06-29T11:29:44.106Z,12.01
2018-06-29T11:30:44.276Z,12.17
2018-06-29T11:31:44.033Z,12.1
2018-06-29T11:32:44.170Z,12.09
2018-06-29T11:33:44.078Z,12.09
2018-06-29T11:34:44.069Z,12.14
2018-06-29T11:35:44.115Z,12.02
2018-06-29T11:36:44.463Z,12.06
2018-06-29T11:37:44.068Z,12.15
2018-06-29T11:38:44.035Z,12.17
2018-06-29T11:39:44.238Z,12.14
2018-06-29T11:40:44.015Z,12.12
2018-06-29T11:41:44.201Z,12.01
2018-06-29T11:42:44.171Z,12.12
2018-06-29T11:43:44.140Z,12.13
2018-06-29T11:44:44.119Z,12.1
2018-06-29T11:45:44.021Z,12.09
2018-06-29T11:46:44.089Z,12.28
2018-06-29T11:47:49.628Z,12.11
2018-06-29T11:48:44.463Z,12.18
2018-06-29T11:49:44.041Z,12.4
2018-06-29T11:50:44.052Z,12.04
2018-06-29T11:51:44.053Z,12.07
2018-06-29T11:52:44.028Z,12.12
2018-06-29T11:53:44.071Z,12.12
2018-06-29T11:54:44.017Z,12.14
2018-06-29T11:55:44.145Z,12.21
2018-06-29T11:56:44.087Z,12.27
2018-06-29T11:57:44.021Z,12.05
2018-06-29T11:58:44.046Z,12.1
2018-06-29T11:59:44.043Z,12.29
2018-06-29T12:00:45.096Z,12.16
2018-06-29T12:01:44.043Z,12.16
2018-06-29T12:02:44.058Z,12.22
2018-06-29T12:03:44.080Z,12.36
2018-06-29T12:04:44.044Z,12.14
2018-06-29T12:05:44.082Z,12.19
2018-06-29T12:06:44.099Z,12.31
2018-06-29T12:07:44.122Z,12.29
2018-06-29T12:08:44.082Z,11.98
2018-06-29T12:09:44.074Z,12.15
2018-06-29T12:10:44.116Z,12.26
2018-06-29T12:11:44.284Z,12.17
2018-06-29T12:12:44.160Z,12.18
2018-06-29T12:13:44.061Z,12.29
2018-06-29T12:14:44.245Z,12.18
2018-06-29T12:15:44.146Z,12.07
2018-06-29T12:16:44.046Z,12.28
2018-06-29T12:17:44.135Z,12.19
2018-06-29T12:18:44.072Z,12.1
2018-06-29T12:19:44.121Z,12.13
2018-06-29T12:20:44.689Z,12.17
2018-06-29T12:21:44.067Z,12.22
2018-06-29T12:22:44.041Z,12.01
2018-06-29T12:23:44.089Z,12.05
2018-06-29T12:24:44.088Z,12.14
2018-06-29T12:25:44.196Z,12
2018-06-29T12:26:44.306Z,12.16
2018-06-29T12:27:44.109Z,12.12
2018-06-29T12:28:44.071Z,12.11
2018-06-29T12:29:44.078Z,12.11
2018-06-29T12:30:44.391Z,11.89
2018-06-29T12:31:44.091Z,12
2018-06-29T12:32:44.067Z,12.16
2018-06-29T12:33:44.058Z,12.07
2018-06-29T12:34:44.055Z,11.86
2018-06-29T12:35:44.052Z,11.97
2018-06-29T12:36:44.229Z,11.95
2018-06-29T12:37:44.067Z,11.98
2018-06-29T12:38:44.054Z,12.2
2018-06-29T12:39:44.310Z,12.24
2018-06-29T12:40:44.191Z,12.09
2018-06-29T12:41:44.078Z,12.12
2018-06-29T12:42:44.070Z,12.18
2018-06-29T12:43:44.053Z,12.14
2018-06-29T12:44:44.085Z,12.23
2018-06-29T12:45:44.074Z,12.26
2018-06-29T12:46:44.221Z,12.14
2018-06-29T12:47:44.191Z,12.21
2018-06-29T12:48:44.160Z,11.98
2018-06-29T12:49:44.159Z,12.04
2018-06-29T12:50:44.095Z,11.78
2018-06-29T12:51:44.266Z,11.87
2018-06-29T12:52:44.313Z,11.73
2018-06-29T12:53:44.064Z,11.88
2018-06-29T12:54:44.267Z,11.79
2018-06-29T12:55:44.469Z,11.77